Time;durP1;ratioP1;P1;durP2;ratioP2;P2;SDS_P1;SDS_P2;PMS_P1;PMS_P2;Temp;Humidity;BMP_temperature;BMP_pressure;BME280_temperature;BME280_humidity;BME280_pressure;Samples;Min_cycle;Max_cycle;Signal;HPM_P1;HPM_P2
2022/04/09 00:01:52;;;;;;;3.40;1.70;;;;;;;16.08;100.00;62519.59;5091564;28;20622;-71
2022/04/09 00:04:19;;;;;;;2.67;1.47;;;;;;;15.62;100.00;62475.19;5091666;28;20628;-71
2022/04/09 00:06:45;;;;;;;5.03;1.90;;;;;;;16.13;100.00;62529.03;5091766;28;20296;-72
2022/04/09 00:09:13;;;;;;;3.33;1.50;;;;;;;16.23;100.00;62534.66;5091645;28;20561;-71
2022/04/09 00:11:41;;;;;;;3.27;1.87;;;;;;;16.08;100.00;62523.66;5091578;28;20268;-73
2022/04/09 00:14:09;;;;;;;3.50;1.87;;;;;;;15.93;100.00;62503.44;5091919;28;20192;-71
2022/04/09 00:16:36;;;;;;;2.40;1.40;;;;;;;16.15;100.00;62531.19;5093911;28;20208;-72
2022/04/09 00:19:04;;;;;;;3.67;1.53;;;;;;;16.18;100.00;62529.28;5096344;28;20647;-72
2022/04/09 00:21:31;;;;;;;2.30;1.90;;;;;;;16.13;100.00;62526.47;5095707;28;20195;-72
2022/04/09 00:23:58;;;;;;;2.03;1.43;;;;;;;16.18;100.00;62529.81;5095946;28;20204;-73
2022/04/09 00:26:27;;;;;;;4.57;1.67;;;;;;;15.52;100.00;62459.28;5095498;28;20786;-72
2022/04/09 00:28:53;;;;;;;3.70;1.30;;;;;;;16.11;100.00;62524.84;5095649;28;20199;-72
2022/04/09 00:31:20;;;;;;;2.67;1.40;;;;;;;15.99;100.00;62509.91;5096035;28;20200;-73
2022/04/09 00:33:47;;;;;;;1.83;1.37;;;;;;;16.11;100.00;62522.28;5095909;28;20235;-71
2022/04/09 00:36:14;;;;;;;3.03;1.50;;;;;;;16.17;100.00;62521.03;5095251;28;20196;-71
2022/04/09 00:38:41;;;;;;;5.07;1.70;;;;;;;16.12;100.00;62523.34;5095283;28;20579;-71
2022/04/09 00:41:10;;;;;;;1.53;1.40;;;;;;;16.13;100.00;62523.88;5095342;28;20226;-71
2022/04/09 00:43:41;;;;;;;1.70;1.27;;;;;;;16.20;100.00;62531.44;5095289;28;20195;-72
2022/04/09 00:46:08;;;;;;;4.40;1.70;;;;;;;16.22;100.00;62533.59;5095809;28;20334;-71
2022/04/09 00:48:37;;;;;;;3.20;1.60;;;;;;;15.97;100.00;62507.75;5095292;28;20206;-71
2022/04/09 00:51:04;;;;;;;4.57;1.50;;;;;;;15.95;100.00;62507.63;5095196;28;20200;-73
2022/04/09 00:53:34;;;;;;;2.47;1.30;;;;;;;16.02;100.00;62515.69;5095271;28;20359;-71
2022/04/09 00:56:21;;;;;;;3.70;1.50;;;;;;;16.08;100.00;62519.03;5095270;28;20199;-72
2022/04/09 00:58:55;;;;;;;6.67;1.80;;;;;;;16.02;100.00;62518.25;5094878;28;20725;-72
2022/04/09 01:01:24;;;;;;;3.60;1.70;;;;;;;16.08;100.00;62521.59;5093807;28;20229;-72
2022/04/09 01:03:52;;;;;;;3.17;2.00;;;;;;;15.66;100.00;62476.91;5095476;28;20196;-72
2022/04/09 01:06:19;;;;;;;5.67;2.90;;;;;;;15.25;100.00;62430.22;5094616;28;20227;-71
2022/04/09 01:08:46;;;;;;;9.57;2.80;;;;;;;14.98;100.00;62403.72;5094579;28;20257;-71
2022/04/09 01:11:14;;;;;;;4.70;3.20;;;;;;;14.67;100.00;62367.81;5094993;28;20261;-72
2022/04/09 01:13:43;;;;;;;5.47;2.97;;;;;;;14.58;100.00;62358.13;5094599;28;20196;-71
2022/04/09 01:16:13;;;;;;;5.80;2.67;;;;;;;14.32;100.00;62331.25;5094756;28;20200;-71
2022/04/09 01:18:41;;;;;;;6.63;2.90;;;;;;;14.23;100.00;62326.66;5094893;28;20191;-71
2022/04/09 01:21:08;;;;;;;9.90;2.77;;;;;;;13.91;100.00;62287.13;5094512;28;20196;-71
2022/04/09 01:23:36;;;;;;;6.47;2.70;;;;;;;13.68;100.00;62262.44;5094429;28;20207;-71
2022/04/09 01:26:05;;;;;;;7.50;3.00;;;;;;;13.76;100.00;62273.59;5094413;28;20227;-72
2022/04/09 01:28:33;;;;;;;3.30;2.20;;;;;;;13.70;100.00;62264.56;5093988;28;20199;-72
2022/04/09 01:31:00;;;;;;;3.73;2.40;;;;;;;13.25;100.00;62216.75;5094736;28;20196;-72
2022/04/09 01:33:27;;;;;;;4.93;2.40;;;;;;;13.41;100.00;62233.94;5095075;28;20223;-72
2022/04/09 01:35:55;;;;;;;5.03;2.17;;;;;;;13.29;100.00;62223.06;5094225;28;20207;-71
2022/04/09 01:38:22;;;;;;;4.47;2.47;;;;;;;13.23;100.00;62214.06;5094081;28;20254;-72
2022/04/09 01:40:50;;;;;;;11.50;2.70;;;;;;;13.19;100.00;62209.78;5094463;28;20195;-72
2022/04/09 01:43:17;;;;;;;4.00;2.30;;;;;;;13.09;100.00;62199.03;5094513;28;20261;-71
2022/04/09 01:45:44;;;;;;;3.57;2.13;;;;;;;13.00;100.00;62189.34;5094024;28;20674;-71
2022/04/09 01:48:11;;;;;;;4.23;2.20;;;;;;;12.98;100.00;62189.78;5093777;28;20191;-71
2022/04/09 01:50:38;;;;;;;4.23;2.40;;;;;;;12.93;100.00;62181.84;5093785;28;20261;-70
2022/04/09 01:53:05;;;;;;;5.90;2.40;;;;;;;12.91;100.00;62180.22;5093975;28;20290;-70
2022/04/09 01:55:32;;;;;;;8.13;2.67;;;;;;;13.06;100.00;62193.25;5094179;28;20200;-73
2022/04/09 01:58:01;;;;;;;7.37;2.77;;;;;;;13.07;100.00;62196.88;5093772;28;20195;-71
2022/04/09 02:00:27;;;;;;;4.77;2.47;;;;;;;13.02;100.00;62196.63;5093846;28;20199;-71
2022/04/09 02:02:54;;;;;;;7.33;2.50;;;;;;;12.89;100.00;62177.53;5093794;28;20751;-71
2022/04/09 02:05:21;;;;;;;6.30;3.13;;;;;;;12.96;100.00;62185.06;5094158;28;20196;-71
2022/04/09 02:07:48;;;;;;;5.43;2.90;;;;;;;13.00;100.00;62192.44;5093522;28;20204;-73
2022/04/09 02:10:17;;;;;;;5.57;3.00;;;;;;;12.51;100.00;62140.38;5093999;28;20196;-71
2022/04/09 02:12:45;;;;;;;5.87;3.30;;;;;;;13.07;100.00;62196.88;5093653;28;20785;-71
2022/04/09 02:15:15;;;;;;;4.37;2.73;;;;;;;13.10;100.00;62203.19;5093392;28;20195;-71
2022/04/09 02:17:43;;;;;;;8.90;3.13;;;;;;;13.04;100.00;62198.78;5093460;28;20719;-71
2022/04/09 02:20:12;;;;;;;6.60;3.17;;;;;;;13.02;100.00;62186.41;5093293;28;20257;-71
2022/04/09 02:22:41;;;;;;;4.43;3.07;;;;;;;12.84;100.00;62177.28;5093580;28;20203;-71
2022/04/09 02:25:10;;;;;;;7.00;3.37;;;;;;;12.71;100.00;62159.28;5093397;28;20290;-71
2022/04/09 02:27:37;;;;;;;6.30;3.03;;;;;;;12.91;100.00;62179.69;5093518;28;20231;-71
2022/04/09 02:30:05;;;;;;;6.30;3.30;;;;;;;12.83;100.00;62171.09;5092962;28;20199;-72
2022/04/09 02:32:42;;;;;;;5.47;2.90;;;;;;;12.80;100.00;62170.44;5093042;28;20231;-71
2022/04/09 02:35:10;;;;;;;6.43;2.90;;;;;;;12.73;100.00;62164.00;5093599;28;20303;-71
2022/04/09 02:37:37;;;;;;;7.63;2.90;;;;;;;12.62;100.00;62154.75;5093106;28;20207;-71
2022/04/09 02:40:05;;;;;;;8.70;2.83;;;;;;;12.38;100.00;62123.31;5093082;28;20191;-72
2022/04/09 02:42:32;;;;;;;6.17;3.37;;;;;;;12.32;100.00;62119.97;5093610;28;20239;-72
2022/04/09 02:44:59;;;;;;;3.40;2.67;;;;;;;11.96;100.00;62080.81;5093446;28;20192;-72
2022/04/09 02:47:26;;;;;;;6.53;2.80;;;;;;;12.19;100.00;62106.03;5092753;28;20288;-71
2022/04/09 02:49:54;;;;;;;4.57;2.73;;;;;;;11.98;100.00;62078.38;5092737;28;20193;-73
2022/04/09 02:52:21;;;;;;;3.80;2.43;;;;;;;11.92;100.00;62079.63;5092939;28;20264;-72
2022/04/09 02:54:47;;;;;;;7.77;2.87;;;;;;;11.63;100.00;62045.94;5093250;28;20261;-71
2022/04/09 02:57:14;;;;;;;13.70;2.93;;;;;;;11.70;100.00;62056.00;5093316;28;20199;-71
2022/04/09 02:59:41;;;;;;;7.77;3.60;;;;;;;11.49;100.00;62025.81;5092831;28;20241;-71
2022/04/09 03:02:07;;;;;;;9.00;2.70;;;;;;;11.44;100.00;62023.56;5092522;28;20207;-71
2022/04/09 03:04:34;;;;;;;5.17;2.70;;;;;;;11.34;100.00;62012.28;5092636;28;20250;-71
2022/04/09 03:07:03;;;;;;;5.07;2.70;;;;;;;11.25;100.00;62003.16;5093054;28;20288;-71
2022/04/09 03:09:31;;;;;;;5.67;2.90;;;;;;;11.21;100.00;61998.38;5092395;28;20199;-71
2022/04/09 03:11:57;;;;;;;5.10;2.90;;;;;;;11.19;100.00;61999.28;5092594;28;20659;-71
2022/04/09 03:14:25;;;;;;;3.97;2.53;;;;;;;11.30;100.00;62008.53;5092438;28;20655;-71
2022/04/09 03:16:52;;;;;;;6.20;2.90;;;;;;;11.27;100.00;62004.78;5092455;28;20713;-72
2022/04/09 03:19:20;;;;;;;6.10;2.50;;;;;;;11.24;100.00;62001.56;5092668;28;20257;-71
2022/04/09 03:21:47;;;;;;;10.47;2.80;;;;;;;11.23;100.00;62001.03;5092508;28;20264;-71
2022/04/09 03:24:15;;;;;;;4.57;2.97;;;;;;;11.26;100.00;62006.25;5092029;28;20601;-72
2022/04/09 03:26:42;;;;;;;3.90;2.90;;;;;;;11.19;100.00;61999.28;5092067;28;20617;-71
2022/04/09 03:29:09;;;;;;;9.03;3.07;;;;;;;11.06;100.00;61985.38;5092081;28;20195;-71
2022/04/09 03:31:36;;;;;;;8.17;3.20;;;;;;;11.06;100.00;61982.81;5092144;28;20196;-71
2022/04/09 03:34:04;;;;;;;13.17;3.33;;;;;;;11.02;100.00;61981.63;5092243;28;20195;-71
2022/04/09 03:36:31;;;;;;;12.40;3.70;;;;;;;10.89;100.00;61967.69;5092677;28;20199;-73
2022/04/09 03:38:58;;;;;;;10.27;4.00;;;;;;;11.00;100.00;61978.94;5092070;28;20199;-71
2022/04/09 03:41:26;;;;;;;6.73;3.40;;;;;;;11.01;100.00;61978.00;5092325;28;20265;-72
2022/04/09 03:43:53;;;;;;;4.83;3.27;;;;;;;10.97;100.00;61975.72;5091999;28;20264;-71
2022/04/09 03:46:20;;;;;;;8.17;3.57;;;;;;;11.11;100.00;61988.16;5091987;28;20224;-71
2022/04/09 03:48:47;;;;;;;7.50;4.20;;;;;;;10.84;100.00;61959.78;5092314;28;20290;-71
2022/04/09 03:51:14;;;;;;;6.73;3.47;;;;;;;10.99;100.00;61975.84;5095300;28;20199;-72
2022/04/09 03:53:41;;;;;;;5.97;3.17;;;;;;;10.93;100.00;61971.97;5098467;28;20248;-71
2022/04/09 03:56:07;;;;;;;24.33;12.10;;;;;;;10.92;100.00;61965.81;5098803;28;20618;-71
2022/04/09 03:58:38;;;;;;;12.00;4.73;;;;;;;10.87;100.00;61962.97;5098401;28;20806;-71
2022/04/09 04:01:05;;;;;;;16.20;4.83;;;;;;;10.92;100.00;61968.34;5099268;28;20195;-72
2022/04/09 04:03:34;;;;;;;11.10;4.83;;;;;;;10.87;100.00;61962.97;5098592;28;20764;-73
2022/04/09 04:06:01;;;;;;;11.03;4.00;;;;;;;10.87;100.00;61968.06;5098604;28;20226;-72
2022/04/09 04:08:28;;;;;;;12.63;4.37;;;;;;;10.98;100.00;61974.78;5098675;28;20209;-71
2022/04/09 04:10:55;;;;;;;12.07;4.10;;;;;;;10.90;100.00;61966.22;5098504;28;20191;-72
2022/04/09 04:13:22;;;;;;;11.80;4.47;;;;;;;10.91;100.00;61967.28;5098322;28;20219;-71
2022/04/09 04:15:50;;;;;;;11.03;4.13;;;;;;;10.96;100.00;61967.53;5098510;28;20199;-71
2022/04/09 04:18:17;;;;;;;5.97;3.00;;;;;;;10.98;100.00;61974.78;5098621;28;20603;-72
2022/04/09 04:20:44;;;;;;;9.63;3.07;;;;;;;11.09;100.00;61986.03;5098588;28;20203;-72
2022/04/09 04:23:10;;;;;;;8.20;2.93;;;;;;;11.25;100.00;62008.28;5098664;28;20622;-71
2022/04/09 04:25:37;;;;;;;7.23;2.80;;;;;;;11.43;100.00;62019.41;5098402;28;20199;-73
2022/04/09 04:28:06;;;;;;;25.87;5.57;;;;;;;11.41;100.00;62019.81;5098273;28;20237;-72
2022/04/09 04:30:32;;;;;;;33.17;6.67;;;;;;;10.55;100.00;61931.25;5098415;28;20293;-72
2022/04/09 04:33:00;;;;;;;19.27;5.40;;;;;;;11.14;100.00;61990.84;5098444;28;20266;-72
2022/04/09 04:35:27;;;;;;;21.93;5.17;;;;;;;11.29;100.00;62012.03;5098153;28;20195;-71
2022/04/09 04:37:54;;;;;;;14.00;5.47;;;;;;;11.44;100.00;62017.91;5098938;28;20192;-71
2022/04/09 04:40:21;;;;;;;31.33;7.83;;;;;;;11.58;100.00;62040.56;5098481;28;20200;-72
2022/04/09 04:42:49;;;;;;;29.57;7.17;;;;;;;11.73;100.00;62054.66;5098307;28;20582;-71
2022/04/09 04:45:16;;;;;;;14.47;5.70;;;;;;;11.86;100.00;62071.16;5098382;28;20195;-70
2022/04/09 04:47:44;;;;;;;26.73;6.00;;;;;;;11.97;100.00;62079.34;5098235;28;20292;-73
2022/04/09 04:50:13;;;;;;;10.47;4.67;;;;;;;12.16;100.00;62097.69;5098323;28;20195;-71
2022/04/09 04:52:39;;;;;;;13.20;4.60;;;;;;;12.28;100.00;62113.13;5098222;28;20344;-72
2022/04/09 04:55:08;;;;;;;28.60;6.00;;;;;;;12.45;100.00;62136.50;5098197;28;20210;-72
2022/04/09 04:57:41;;;;;;;17.93;5.13;;;;;;;12.64;100.00;62151.78;5098255;28;20229;-72
2022/04/09 05:00:09;;;;;;;19.90;6.23;;;;;;;12.79;100.00;62164.78;5098116;28;20773;-71
2022/04/09 05:02:36;;;;;;;21.10;7.33;;;;;;;12.84;100.00;62177.81;5094986;28;20195;-73
2022/04/09 05:05:03;;;;;;;11.43;6.67;;;;;;;12.71;100.00;62161.31;5094921;28;20192;-71
2022/04/09 05:07:39;;;;;;;24.20;7.27;;;;;;;13.27;100.00;62216.34;5094772;28;20281;-72
2022/04/09 05:10:07;;;;;;;16.53;6.93;;;;;;;13.61;100.00;62254.91;5094785;28;20613;-71
2022/04/09 05:12:34;;;;;;;15.83;7.13;;;;;;;13.81;100.00;62273.81;5094544;28;20846;-71
2022/04/09 05:15:02;;;;;;;10.60;6.07;;;;;;;13.95;100.00;62294.00;5095022;28;20196;-71
2022/04/09 05:17:28;;;;;;;8.47;5.53;;;;;;;14.27;100.00;62325.84;5094515;28;20211;-73
2022/04/09 05:19:55;;;;;;;11.00;4.93;;;;;;;14.50;100.00;62346.94;5095012;28;20195;-72
2022/04/09 05:22:22;;;;;;;12.87;6.00;;;;;;;14.63;100.00;62369.16;5094604;28;20198;-71
2022/04/09 05:24:54;;;;;;;14.93;6.03;;;;;;;14.77;100.00;62378.56;5094491;28;20248;-71
2022/04/09 05:27:21;;;;;;;13.47;4.80;;;;;;;14.95;100.00;62395.38;5094464;28;20706;-71
2022/04/09 05:29:48;;;;;;;11.17;4.50;;;;;;;15.11;100.00;62415.16;5094086;28;20204;-70
2022/04/09 05:32:15;;;;;;;16.20;4.50;;;;;;;15.37;100.00;62445.16;5094084;28;20284;-71
2022/04/09 05:34:42;;;;;;;15.53;4.90;;;;;;;15.51;100.00;62457.66;5094453;28;20195;-72
2022/04/09 05:37:11;;;;;;;13.10;5.43;;;;;;;15.77;100.00;62491.34;5094224;28;20282;-70
2022/04/09 05:39:37;;;;;;;15.63;5.10;;;;;;;16.10;100.00;62525.81;5093894;28;20236;-71
2022/04/09 05:42:06;;;;;;;12.87;4.90;;;;;;;16.06;100.00;62517.44;5094393;28;20196;-72
2022/04/09 05:44:32;;;;;;;16.23;5.70;;;;;;;15.87;100.00;62496.97;5093775;28;20267;-71
2022/04/09 05:47:00;;;;;;;11.87;6.43;;;;;;;16.23;100.00;62540.34;5093826;28;20285;-72
2022/04/09 05:49:27;;;;;;;13.60;7.23;;;;;;;16.28;100.00;62540.06;5094036;28;20200;-71
2022/04/09 05:51:54;;;;;;;17.30;8.83;;;;;;;16.41;100.00;62554.06;5093834;28;20203;-71
2022/04/09 05:54:20;;;;;;;17.30;9.10;;;;;;;16.71;100.00;62581.25;5094638;28;20196;-71
2022/04/09 05:56:47;;;;;;;13.20;9.17;;;;;;;16.96;100.00;62610.25;5093600;28;20199;-73
2022/04/09 05:59:15;;;;;;;12.23;8.03;;;;;;;16.87;100.00;62603.66;5093615;28;20607;-72
2022/04/09 06:01:42;;;;;;;15.60;7.33;;;;;;;15.63;100.00;62468.56;5093739;28;20196;-73
2022/04/09 06:04:10;;;;;;;11.07;7.03;;;;;;;16.40;100.00;62552.97;5094207;28;20270;-71
2022/04/09 06:06:38;;;;;;;8.90;5.50;;;;;;;15.93;100.00;62502.88;5093217;28;20203;-71
2022/04/09 06:09:05;;;;;;;7.53;4.70;;;;;;;15.28;100.00;62433.44;5094403;28;20256;-71
2022/04/09 06:11:32;;;;;;;13.93;4.47;;;;;;;15.85;100.00;62497.38;5093638;28;20196;-71
2022/04/09 06:13:59;;;;;;;6.50;3.67;;;;;;;15.82;100.00;62489.00;5093048;28;20256;-72
2022/04/09 06:16:27;;;;;;;8.27;4.03;;;;;;;15.82;100.00;62491.56;5093136;28;20287;-71
2022/04/09 06:18:53;;;;;;;10.53;3.57;;;;;;;15.99;100.00;62509.91;5093237;28;20657;-71
2022/04/09 06:21:20;;;;;;;12.10;4.03;;;;;;;16.26;100.00;62541.00;5093232;28;20199;-72
2022/04/09 06:23:47;;;;;;;10.10;4.40;;;;;;;16.21;100.00;62532.50;5092987;28;20191;-72
2022/04/09 06:26:14;;;;;;;11.70;3.83;;;;;;;16.08;100.00;62515.94;5093013;28;20252;-72
2022/04/09 06:28:40;;;;;;;10.20;3.70;;;;;;;15.99;100.00;62509.91;5093220;28;20227;-72
2022/04/09 06:31:07;;;;;;;9.33;3.17;;;;;;;15.96;100.00;62506.13;5093828;28;20218;-72
2022/04/09 06:33:35;;;;;;;6.67;3.47;;;;;;;15.92;100.00;62502.34;5092632;28;20606;-72
2022/04/09 06:36:02;;;;;;;13.23;3.27;;;;;;;16.11;100.00;62519.16;5093362;28;20553;-72
2022/04/09 06:38:30;;;;;;;13.43;3.63;;;;;;;16.08;100.00;62517.00;5093101;28;20276;-73
2022/04/09 06:40:57;;;;;;;18.50;4.60;;;;;;;15.95;100.00;62499.91;5092758;28;20249;-72
2022/04/09 06:43:24;;;;;;;10.57;3.17;;;;;;;16.17;100.00;62528.75;5092523;28;20207;-71
2022/04/09 06:45:51;;;;;;;9.93;3.03;;;;;;;16.15;100.00;62526.59;5093189;28;20195;-73
2022/04/09 06:48:17;;;;;;;13.83;3.63;;;;;;;16.36;100.00;62548.69;5092341;28;20285;-72
2022/04/09 06:50:45;;;;;;;12.23;3.50;;;;;;;16.49;100.00;62563.22;5093279;28;20196;-71
2022/04/09 06:53:12;;;;;;;11.97;3.63;;;;;;;16.57;100.00;62571.84;5092904;28;20199;-72
2022/04/09 06:55:40;;;;;;;9.87;3.40;;;;;;;16.47;100.00;62561.06;5092646;28;20676;-72
2022/04/09 06:58:06;;;;;;;6.87;2.87;;;;;;;16.73;100.00;62588.56;5092732;28;20685;-72
2022/04/09 07:00:34;;;;;;;5.80;2.63;;;;;;;15.88;100.00;62492.91;5093115;28;20195;-71
2022/04/09 07:03:01;;;;;;;5.77;2.47;;;;;;;16.27;100.00;62536.41;5092588;28;20630;-73
2022/04/09 07:05:28;;;;;;;10.03;2.73;;;;;;;16.95;100.00;62612.25;5092358;28;20202;-72
2022/04/09 07:07:56;;;;;;;10.00;2.60;;;;;;;17.12;100.00;62633.19;5092767;28;20634;-71
2022/04/09 07:10:23;;;;;;;5.90;2.80;;;;;;;17.31;100.00;62648.50;5091275;28;20286;-71
2022/04/09 07:12:50;;;;;;;6.73;2.70;;;;;;;17.73;100.00;62695.34;5092080;28;20220;-72
2022/04/09 07:15:17;;;;;;;7.23;2.80;;;;;;;17.63;100.00;62680.47;5092255;28;20207;-73
2022/04/09 07:17:44;;;;;;;6.07;2.60;;;;;;;17.89;100.00;62712.59;5092102;28;20654;-71
2022/04/09 07:20:12;;;;;;;6.17;3.23;;;;;;;18.16;100.00;62739.69;5092648;28;20203;-73
2022/04/09 07:22:40;;;;;;;9.37;3.00;;;;;;;18.28;100.00;62754.66;5092445;28;20195;-72
2022/04/09 07:25:10;;;;;;;31.33;4.80;;;;;;;18.50;100.00;62778.44;5091630;28;20199;-71
2022/04/09 07:27:39;;;;;;;5.73;2.47;;;;;;;18.52;100.00;62778.00;5092478;28;20322;-72
2022/04/09 07:30:08;;;;;;;18.23;3.63;;;;;;;18.61;100.00;62790.31;5091514;28;20207;-72
2022/04/09 07:32:35;;;;;;;12.00;2.90;;;;;;;18.77;100.00;62807.59;5092514;28;20280;-72
2022/04/09 07:35:02;;;;;;;11.13;3.33;;;;;;;18.73;100.00;62803.28;5092264;28;20195;-71
2022/04/09 07:37:29;;;;;;;9.07;3.77;;;;;;;18.74;100.00;62801.75;5092590;28;20249;-72
2022/04/09 07:39:56;;;;;;;9.93;3.60;;;;;;;18.94;100.00;62825.94;5091883;28;20639;-73
2022/04/09 07:42:24;;;;;;;8.53;3.80;;;;;;;19.22;100.00;62855.63;5091871;28;20204;-72
2022/04/09 07:44:52;;;;;;;17.57;4.20;;;;;;;19.52;100.00;62887.53;5092568;28;20196;-72
2022/04/09 07:47:20;;;;;;;7.60;3.70;;;;;;;19.51;100.00;62886.47;5091726;28;20226;-71
2022/04/09 07:49:49;;;;;;;13.90;3.40;;;;;;;19.25;100.00;62859.44;5091838;28;20203;-73
2022/04/09 07:52:16;;;;;;;9.33;3.20;;;;;;;19.35;100.00;62864.53;5092465;28;20195;-72
2022/04/09 07:54:42;;;;;;;6.43;2.60;;;;;;;19.52;100.00;62887.53;5091865;28;20199;-73
2022/04/09 07:57:09;;;;;;;4.60;2.53;;;;;;;19.83;100.00;62921.59;5091754;28;20191;-72
2022/04/09 07:59:37;;;;;;;6.33;2.30;;;;;;;20.45;100.00;62988.09;5091823;28;20655;-73
2022/04/09 08:02:05;;;;;;;8.93;2.90;;;;;;;20.67;100.00;63006.72;5091491;28;20195;-72
2022/04/09 08:04:32;;;;;;;8.57;2.67;;;;;;;20.99;100.00;63046.50;5091589;28;20279;-72
2022/04/09 08:06:59;;;;;;;6.83;2.53;;;;;;;21.30;100.00;63076.94;5091801;28;20196;-72
2022/04/09 08:09:26;;;;;;;4.50;2.40;;;;;;;21.05;100.00;63046.75;5091400;28;20239;-71
2022/04/09 08:11:53;;;;;;;5.70;2.20;;;;;;;21.25;100.00;63073.59;5092079;28;20690;-72
2022/04/09 08:14:19;;;;;;;3.97;2.10;;;;;;;21.64;100.00;63113.19;5091348;28;20198;-71
2022/04/09 08:16:47;;;;;;;8.53;4.47;;;;;;;21.61;100.00;63109.97;5091433;28;20622;-73
2022/04/09 08:19:14;;;;;;;10.80;4.03;;;;;;;21.85;100.00;63138.56;5092060;28;20210;-73
2022/04/09 08:21:41;;;;;;;6.30;2.50;;;;;;;22.40;97.32;63195.53;5090327;28;20693;-72
2022/04/09 08:24:09;;;;;;;18.27;3.60;;;;;;;22.72;94.32;63232.25;5091481;28;20199;-72
2022/04/09 08:26:36;;;;;;;7.33;3.20;;;;;;;22.64;97.10;63224.16;5091639;28;20261;-72
2022/04/09 08:29:05;;;;;;;8.13;3.40;;;;;;;22.82;96.00;63242.56;5091441;28;20610;-71
2022/04/09 08:31:32;;;;;;;9.97;3.47;;;;;;;23.02;85.19;63259.59;5091161;28;20200;-72
2022/04/09 08:34:00;;;;;;;4.37;2.40;;;;;;;22.70;92.09;63227.50;5091941;28;20235;-72
2022/04/09 08:36:27;;;;;;;7.83;2.47;;;;;;;22.09;86.11;63164.56;5091782;28;20245;-71
2022/04/09 08:38:55;;;;;;;7.83;3.00;;;;;;;22.14;92.46;63164.75;5095684;28;20820;-73
2022/04/09 08:41:22;;;;;;;10.83;3.03;;;;;;;22.34;93.19;63188.47;5095845;28;20199;-72
2022/04/09 08:43:49;;;;;;;5.07;2.60;;;;;;;22.39;90.80;63197.03;5095173;28;20199;-73
2022/04/09 08:46:16;;;;;;;7.57;2.60;;;;;;;22.71;93.51;63225.44;5094768;28;20282;-71
2022/04/09 08:48:47;;;;;;;7.17;2.67;;;;;;;23.17;84.89;63277.91;5095171;28;20223;-71
2022/04/09 08:51:16;;;;;;;7.73;2.90;;;;;;;23.16;81.09;63279.44;5094958;28;20518;-74
2022/04/09 08:53:44;;;;;;;7.87;2.50;;;;;;;23.31;78.93;63295.69;5094821;28;20735;-72
2022/04/09 08:56:12;;;;;;;10.60;2.57;;;;;;;23.58;78.62;63327.59;5095007;28;20580;-72
2022/04/09 08:58:38;;;;;;;11.33;3.33;;;;;;;23.35;76.52;63294.84;5094977;28;20280;-71
2022/04/09 09:01:05;;;;;;;6.53;2.60;;;;;;;22.97;75.51;63258.81;5095344;28;20283;-70
2022/04/09 09:03:35;;;;;;;8.37;3.83;;;;;;;23.38;78.63;63298.63;5094662;28;20192;-73
2022/04/09 09:06:04;;;;;;;9.87;2.70;;;;;;;22.81;76.96;63236.28;5094440;28;20249;-70
2022/04/09 09:08:41;;;;;;;7.47;2.73;;;;;;;22.71;79.82;63226.00;5094448;28;20227;-71
2022/04/09 09:11:08;;;;;;;7.13;2.80;;;;;;;22.13;77.46;63168.88;5094593;28;20202;-72
2022/04/09 09:13:47;;;;;;;7.77;3.00;;;;;;;23.31;78.53;63298.28;5093098;28;20262;-70
2022/04/09 09:16:23;;;;;;;6.17;2.70;;;;;;;23.56;69.89;63328.03;5094449;28;20654;-72
2022/04/09 09:18:51;;;;;;;8.70;2.83;;;;;;;23.19;70.23;63277.47;5094506;28;20205;-71
2022/04/09 09:21:23;;;;;;;6.10;2.30;;;;;;;22.94;70.00;63250.38;5094309;28;20729;-72
2022/04/09 09:23:52;;;;;;;6.17;2.60;;;;;;;22.90;68.62;63248.66;5094435;28;20213;-72
2022/04/09 09:26:24;;;;;;;10.43;2.60;;;;;;;22.30;72.80;63187.28;5093952;28;20196;-71
2022/04/09 09:28:56;;;;;;;7.13;2.40;;;;;;;21.83;74.51;63136.91;5094157;28;20235;-72
2022/04/09 09:31:42;;;;;;;5.80;2.50;;;;;;;22.46;76.90;63204.63;5092874;28;20658;-72
2022/04/09 09:34:14;;;;;;;7.20;2.40;;;;;;;22.64;73.62;63224.16;5093299;28;20260;-72
2022/04/09 09:36:43;;;;;;;9.80;2.60;;;;;;;22.91;68.44;63252.31;5094173;28;20204;-71
2022/04/09 09:39:13;;;;;;;4.00;2.20;;;;;;;23.04;70.11;63266.94;5094096;28;20203;-72
2022/04/09 09:41:48;;;;;;;5.77;2.30;;;;;;;22.57;70.94;63216.56;5094514;28;20203;-71
2022/04/09 09:44:16;;;;;;;10.40;2.63;;;;;;;22.46;72.80;63204.63;5094373;28;20652;-72
2022/04/09 09:46:44;;;;;;;8.60;2.20;;;;;;;22.68;71.43;63225.88;5094075;28;20238;-71
2022/04/09 09:49:11;;;;;;;5.17;2.13;;;;;;;23.17;69.40;63275.84;5092987;28;20228;-72
2022/04/09 09:51:38;;;;;;;9.33;2.30;;;;;;;23.97;66.61;63364.69;5093951;28;20195;-72
2022/04/09 09:54:08;;;;;;;6.67;2.53;;;;;;;24.65;63.90;63437.41;5093526;28;20199;-72
2022/04/09 09:56:39;;;;;;;9.63;2.60;;;;;;;25.31;57.71;63503.88;5093959;28;20245;-71
2022/04/09 09:59:07;;;;;;;27.10;13.80;;;;;;;25.58;55.38;63546.25;5094478;28;20210;-73
2022/04/09 10:01:39;;;;;;;7.87;2.30;;;;;;;25.90;51.54;63575.81;5093676;28;20199;-72
2022/04/09 10:04:07;;;;;;;5.60;2.03;;;;;;;26.35;46.95;63621.03;5094553;28;20229;-72
2022/04/09 10:06:35;;;;;;;7.63;2.00;;;;;;;26.47;47.14;63634.09;5093178;28;20207;-72
2022/04/09 10:09:05;;;;;;;5.37;1.77;;;;;;;25.62;47.79;63545.38;5093693;28;20293;-71
2022/04/09 10:11:39;;;;;;;3.33;1.80;;;;;;;25.35;47.21;63513.44;5093573;28;20210;-72
2022/04/09 10:14:06;;;;;;;5.67;2.00;;;;;;;25.24;47.39;63498.31;5093663;28;20235;-72
2022/04/09 10:16:36;;;;;;;4.70;1.90;;;;;;;25.17;49.13;63493.91;5093480;28;20203;-73
2022/04/09 10:19:05;;;;;;;3.73;1.60;;;;;;;24.47;49.25;63415.81;5093395;28;20222;-70
2022/04/09 10:21:33;;;;;;;8.20;1.90;;;;;;;24.38;53.01;63408.09;5093555;28;20212;-72
2022/04/09 10:24:03;;;;;;;7.40;1.97;;;;;;;24.35;52.14;63404.84;5093567;28;20197;-72
2022/04/09 10:26:31;;;;;;;6.30;1.63;;;;;;;24.10;52.57;63381.41;5093118;28;20733;-72
2022/04/09 10:29:08;;;;;;;5.77;2.10;;;;;;;23.80;52.36;63348.84;5093132;28;20227;-73
2022/04/09 10:31:37;;;;;;;10.93;1.87;;;;;;;23.31;51.73;63295.69;5093579;28;20206;-71
2022/04/09 10:34:07;;;;;;;9.23;1.50;;;;;;;22.56;53.16;63215.47;5092800;28;20195;-72
2022/04/09 10:37:11;;;;;;;6.53;1.80;;;;;;;22.42;55.18;63200.28;5093003;28;20196;-72
2022/04/09 10:39:46;;;;;;;6.40;1.90;;;;;;;22.43;57.40;63200.84;5092681;28;20210;-72
2022/04/09 10:42:51;;;;;;;8.33;1.87;;;;;;;22.39;61.56;63197.03;5092882;27;20584;-72
2022/04/09 10:45:19;;;;;;;4.83;1.43;;;;;;;22.48;60.90;63206.78;5092966;28;20290;-71
2022/04/09 10:48:06;;;;;;;3.17;1.73;;;;;;;22.55;62.03;63219.56;5093043;28;20192;-71
2022/04/09 10:50:54;;;;;;;3.73;1.73;;;;;;;21.82;60.29;63141.03;5093095;28;20279;-71
2022/04/09 10:53:23;;;;;;;4.63;1.57;;;;;;;22.57;56.56;63213.97;5093704;28;20264;-72
2022/04/09 10:56:11;;;;;;;3.33;1.57;;;;;;;23.13;56.48;63276.16;5092726;28;20242;-71
2022/04/09 10:58:59;;;;;;;2.90;1.50;;;;;;;23.82;52.62;63350.47;5084197;28;20202;-72
2022/04/09 11:02:05;;;;;;;7.13;1.87;;;;;;;23.91;53.18;63360.22;5090428;28;20204;-70
2022/04/09 11:04:44;;;;;;;5.90;1.70;;;;;;;23.79;54.13;63347.75;5092627;28;20196;-73
2022/04/09 11:07:14;;;;;;;5.20;1.80;;;;;;;23.58;54.48;63325.00;5092635;28;20343;-71
2022/04/09 11:09:47;;;;;;;2.73;1.57;;;;;;;23.69;50.63;63339.50;5091470;28;20710;-71
2022/04/09 11:12:15;;;;;;;3.27;1.40;;;;;;;23.28;51.90;63292.44;5092117;28;20706;-71
2022/04/09 11:14:44;;;;;;;5.03;1.50;;;;;;;23.49;54.19;63310.03;5092569;28;20196;-72
2022/04/09 11:17:28;;;;;;;2.47;1.33;;;;;;;23.13;55.39;63273.56;5092333;28;20287;-70
2022/04/09 11:19:56;;;;;;;4.10;1.63;;;;;;;22.91;55.10;63252.31;5092132;28;20200;-71
2022/04/09 11:22:31;;;;;;;3.23;1.87;;;;;;;22.74;56.74;63233.91;5092490;28;20253;-71
2022/04/09 11:24:58;;;;;;;3.50;1.30;;;;;;;22.29;59.54;63183.63;5092343;28;20206;-73
2022/04/09 11:27:27;;;;;;;4.70;1.43;;;;;;;22.30;59.87;63189.34;5092319;28;20257;-72
2022/04/09 11:29:55;;;;;;;2.37;1.60;;;;;;;22.27;61.19;63184.03;5092268;28;20681;-71
2022/04/09 11:32:24;;;;;;;5.70;1.40;;;;;;;22.17;61.94;63173.22;5092347;28;20239;-72